createdAt,value
2019-06-26T00:00:13.872Z,18.29
2019-06-26T00:01:13.892Z,18.29
2019-06-26T00:02:13.904Z,18.26
2019-06-26T00:03:13.853Z,18.26
2019-06-26T00:04:13.851Z,18.27
2019-06-26T00:05:13.829Z,18.27
2019-06-26T00:06:13.811Z,18.27
2019-06-26T00:07:13.801Z,18.26
2019-06-26T00:08:13.809Z,18.26
2019-06-26T00:09:13.818Z,18.25
2019-06-26T00:10:13.770Z,18.20
2019-06-26T00:11:13.779Z,18.20
2019-06-26T00:12:13.770Z,18.17
2019-06-26T00:13:25.758Z,18.14
2019-06-26T00:14:14.739Z,18.11
2019-06-26T00:15:13.723Z,18.11
2019-06-26T00:16:13.711Z,18.10
2019-06-26T00:17:13.774Z,18.07
2019-06-26T00:18:13.709Z,18.03
2019-06-26T00:19:13.668Z,18.07
2019-06-26T00:20:13.658Z,18.08
2019-06-26T00:21:13.672Z,18.10
2019-06-26T00:22:13.646Z,18.11
2019-06-26T00:23:13.628Z,18.12
2019-06-26T00:24:13.629Z,18.12
2019-06-26T00:25:13.597Z,18.12
2019-06-26T00:26:23.569Z,18.11
2019-06-26T00:27:13.577Z,18.10
2019-06-26T00:28:13.583Z,18.08
2019-06-26T00:29:13.565Z,18.08
2019-06-26T00:30:13.567Z,18.07
2019-06-26T00:31:13.548Z,18.07
2019-06-26T00:32:13.528Z,18.08
2019-06-26T00:33:13.526Z,18.07
2019-06-26T00:34:13.505Z,18.05
2019-06-26T00:35:13.506Z,18.00
2019-06-26T00:36:13.529Z,18.00
2019-06-26T00:37:13.465Z,17.96
2019-06-26T00:38:13.504Z,17.95
2019-06-26T00:39:13.474Z,17.96
2019-06-26T00:40:13.445Z,17.92
2019-06-26T00:41:13.427Z,17.89
2019-06-26T00:42:13.447Z,17.92
2019-06-26T00:43:13.417Z,17.95
2019-06-26T00:44:13.413Z,17.89
2019-06-26T00:45:13.422Z,17.90
2019-06-26T00:46:13.397Z,17.87
2019-06-26T00:47:13.426Z,17.89
2019-06-26T00:48:13.358Z,17.90
2019-06-26T00:49:13.354Z,17.89
2019-06-26T00:50:13.325Z,17.87
2019-06-26T00:51:13.326Z,17.87
2019-06-26T00:52:13.327Z,17.89
2019-06-26T00:53:13.343Z,17.89
2019-06-26T00:54:13.303Z,17.90
2019-06-26T00:55:13.273Z,17.92
2019-06-26T00:56:13.285Z,17.89
2019-06-26T00:57:23.142Z,17.89
2019-06-26T00:58:13.246Z,17.89
2019-06-26T00:59:13.258Z,17.86
2019-06-26T01:00:13.222Z,17.87
2019-06-26T01:01:13.212Z,17.86
2019-06-26T01:02:13.201Z,17.87
2019-06-26T01:03:13.193Z,17.90
2019-06-26T01:04:13.219Z,17.90
2019-06-26T01:05:13.171Z,17.89
2019-06-26T01:06:13.201Z,17.90
2019-06-26T01:07:13.154Z,17.89
2019-06-26T01:08:13.164Z,17.89
2019-06-26T01:09:13.158Z,17.84
2019-06-26T01:10:13.119Z,17.82
2019-06-26T01:11:13.115Z,17.82
2019-06-26T01:12:13.099Z,17.84
2019-06-26T01:13:13.102Z,17.84
2019-06-26T01:14:13.084Z,17.82
2019-06-26T01:15:13.072Z,17.78
2019-06-26T01:16:13.087Z,17.81
2019-06-26T01:17:13.096Z,17.79
2019-06-26T01:18:13.053Z,17.77
2019-06-26T01:19:13.030Z,17.71
2019-06-26T01:20:13.019Z,17.68
2019-06-26T01:21:13.021Z,17.66
2019-06-26T01:22:12.991Z,17.66
2019-06-26T01:23:13.050Z,17.66
2019-06-26T01:24:12.987Z,17.64
2019-06-26T01:25:12.969Z,17.70
2019-06-26T01:26:12.953Z,17.70
2019-06-26T01:27:12.943Z,17.70
2019-06-26T01:28:23.737Z,17.66
2019-06-26T01:29:12.905Z,17.66
2019-06-26T01:30:12.901Z,17.66
2019-06-26T01:31:12.896Z,17.63
2019-06-26T01:32:12.865Z,17.62
2019-06-26T01:33:12.866Z,17.62
2019-06-26T01:34:12.894Z,17.62
2019-06-26T01:35:12.865Z,17.64
2019-06-26T01:36:12.837Z,17.66
2019-06-26T01:37:12.825Z,17.70
2019-06-26T01:38:12.830Z,17.63
2019-06-26T01:39:12.818Z,17.58
2019-06-26T01:40:12.807Z,17.55
2019-06-26T01:41:12.809Z,17.54
2019-06-26T01:42:12.793Z,17.52
2019-06-26T01:43:12.767Z,17.54
2019-06-26T01:44:15.264Z,17.58
2019-06-26T01:45:12.754Z,17.58
2019-06-26T01:46:12.723Z,17.62
2019-06-26T01:47:12.741Z,17.62
2019-06-26T01:48:12.727Z,17.58
2019-06-26T01:49:12.704Z,17.56
2019-06-26T01:50:12.727Z,17.55
2019-06-26T01:51:12.680Z,17.56
2019-06-26T01:52:12.677Z,17.54
2019-06-26T01:53:12.666Z,17.51
2019-06-26T01:54:12.663Z,17.49
2019-06-26T01:55:12.665Z,17.48
2019-06-26T01:56:12.623Z,17.46
2019-06-26T01:57:12.645Z,17.44
2019-06-26T01:58:12.618Z,17.44
2019-06-26T01:59:23.264Z,17.46
2019-06-26T02:00:12.593Z,17.48
2019-06-26T02:01:12.558Z,17.48
2019-06-26T02:02:12.553Z,17.43
2019-06-26T02:03:12.580Z,17.44
2019-06-26T02:04:15.494Z,17.43
2019-06-26T02:05:12.542Z,17.43
2019-06-26T02:06:12.523Z,17.44
2019-06-26T02:07:12.504Z,17.46
2019-06-26T02:08:12.487Z,17.46
2019-06-26T02:09:12.502Z,17.44
2019-06-26T02:10:12.502Z,17.44
2019-06-26T02:11:12.459Z,17.43
2019-06-26T02:12:12.475Z,17.43
2019-06-26T02:13:12.469Z,17.46
2019-06-26T02:14:12.431Z,17.44
2019-06-26T02:15:12.409Z,17.48
2019-06-26T02:16:12.423Z,17.46
2019-06-26T02:17:12.413Z,17.41
2019-06-26T02:18:12.401Z,17.38
2019-06-26T02:19:12.420Z,17.43
2019-06-26T02:20:12.390Z,17.46
2019-06-26T02:21:12.349Z,17.48
2019-06-26T02:22:12.347Z,17.49
2019-06-26T02:23:12.341Z,17.51
2019-06-26T02:24:12.360Z,17.46
2019-06-26T02:25:12.311Z,17.41
2019-06-26T02:26:12.288Z,17.44
2019-06-26T02:27:12.287Z,17.44
2019-06-26T02:28:12.286Z,17.46
2019-06-26T02:29:12.299Z,17.49
2019-06-26T02:30:22.438Z,17.49
2019-06-26T02:31:12.263Z,17.48
2019-06-26T02:32:12.273Z,17.44
2019-06-26T02:33:12.216Z,17.37
2019-06-26T02:34:12.220Z,17.36
2019-06-26T02:35:12.240Z,17.33
2019-06-26T02:36:12.187Z,17.31
2019-06-26T02:37:12.184Z,17.33
2019-06-26T02:38:12.179Z,17.33
2019-06-26T02:39:12.154Z,17.36
2019-06-26T02:40:12.166Z,17.34
2019-06-26T02:41:12.192Z,17.37
2019-06-26T02:42:12.127Z,17.34
2019-06-26T02:43:12.107Z,17.34
2019-06-26T02:44:12.102Z,17.34
2019-06-26T02:45:12.086Z,17.34
2019-06-26T02:46:12.085Z,17.37
2019-06-26T02:47:19.571Z,17.37
2019-06-26T02:48:13.065Z,17.36
2019-06-26T02:49:12.069Z,17.34
2019-06-26T02:50:12.090Z,17.34
2019-06-26T02:51:12.030Z,17.36
2019-06-26T02:52:12.013Z,17.38
2019-06-26T02:53:12.003Z,17.40
2019-06-26T02:54:11.997Z,17.41
2019-06-26T02:55:11.997Z,17.41
2019-06-26T02:56:12.736Z,17.36
2019-06-26T02:57:11.975Z,17.34
2019-06-26T02:58:11.960Z,17.34
2019-06-26T02:59:11.961Z,17.37
2019-06-26T03:00:11.933Z,17.38
2019-06-26T03:01:22.392Z,17.40
2019-06-26T03:02:11.902Z,17.38
2019-06-26T03:03:11.933Z,17.40
2019-06-26T03:04:11.897Z,17.37
2019-06-26T03:05:11.878Z,17.36
2019-06-26T03:06:11.873Z,17.37
2019-06-26T03:07:11.872Z,17.40
2019-06-26T03:08:11.840Z,17.43
2019-06-26T03:09:11.857Z,17.38
2019-06-26T03:10:11.831Z,17.38
2019-06-26T03:11:11.845Z,17.37
2019-06-26T03:12:11.809Z,17.40
2019-06-26T03:13:11.798Z,17.43
2019-06-26T03:14:11.825Z,17.46
2019-06-26T03:15:11.759Z,17.46
2019-06-26T03:16:11.794Z,17.48
2019-06-26T03:17:11.757Z,17.44
2019-06-26T03:18:11.737Z,17.41
2019-06-26T03:19:11.752Z,17.40
2019-06-26T03:20:11.739Z,17.41
2019-06-26T03:21:11.696Z,17.37
2019-06-26T03:22:11.711Z,17.34
2019-06-26T03:23:11.690Z,17.34
2019-06-26T03:24:11.680Z,17.34
2019-06-26T03:25:11.670Z,17.34
2019-06-26T03:26:11.670Z,17.33
2019-06-26T03:27:11.639Z,17.31
2019-06-26T03:28:11.650Z,17.25
2019-06-26T03:29:11.645Z,17.22
2019-06-26T03:30:11.625Z,17.21
2019-06-26T03:31:11.630Z,17.16
2019-06-26T03:32:22.030Z,17.15
2019-06-26T03:33:11.609Z,17.08
2019-06-26T03:34:11.556Z,17.07
2019-06-26T03:35:11.546Z,17.04
2019-06-26T03:36:11.543Z,17.03
2019-06-26T03:37:11.575Z,17.01
2019-06-26T03:38:11.527Z,17.06
2019-06-26T03:39:11.550Z,17.06
2019-06-26T03:40:11.496Z,17.08
2019-06-26T03:41:11.482Z,17.07
2019-06-26T03:42:11.527Z,17.08
2019-06-26T03:43:11.513Z,17.08
2019-06-26T03:44:11.473Z,17.14
2019-06-26T03:45:24.416Z,17.12
2019-06-26T03:46:12.426Z,17.14
2019-06-26T03:47:11.437Z,17.12
2019-06-26T03:48:11.416Z,17.18
2019-06-26T03:49:11.445Z,17.19
2019-06-26T03:50:11.415Z,17.18
2019-06-26T03:51:13.847Z,17.19
2019-06-26T03:52:11.374Z,17.18
2019-06-26T03:53:11.353Z,17.15
2019-06-26T03:54:11.370Z,17.07
2019-06-26T03:55:11.406Z,17.07
2019-06-26T03:56:11.345Z,17.04
2019-06-26T03:57:11.337Z,17.07
2019-06-26T03:58:11.313Z,17.06
2019-06-26T03:59:11.311Z,16.97
2019-06-26T04:00:11.277Z,16.97
2019-06-26T04:01:11.284Z,16.96
2019-06-26T04:02:12.121Z,16.94
2019-06-26T04:03:21.450Z,16.96
2019-06-26T04:04:11.247Z,17.00
2019-06-26T04:05:11.235Z,17.00
2019-06-26T04:06:11.238Z,17.01
2019-06-26T04:07:11.198Z,17.04
2019-06-26T04:08:11.191Z,17.00
2019-06-26T04:09:11.193Z,16.98
2019-06-26T04:10:11.179Z,16.98
2019-06-26T04:11:11.171Z,16.98
2019-06-26T04:12:11.161Z,16.97
2019-06-26T04:13:11.141Z,16.97
2019-06-26T04:14:11.141Z,16.97
2019-06-26T04:15:11.174Z,16.96
2019-06-26T04:16:11.121Z,16.96
2019-06-26T04:17:11.111Z,16.98
2019-06-26T04:18:11.080Z,17.00
2019-06-26T04:19:11.068Z,17.03
2019-06-26T04:20:11.071Z,17.03
2019-06-26T04:21:11.111Z,17.06
2019-06-26T04:22:11.095Z,17.07
2019-06-26T04:23:11.049Z,17.04
2019-06-26T04:24:11.035Z,17.06
2019-06-26T04:25:11.030Z,17.04
2019-06-26T04:26:11.020Z,16.98
2019-06-26T04:27:11.036Z,16.96
2019-06-26T04:28:10.968Z,16.93
2019-06-26T04:29:10.990Z,16.94
2019-06-26T04:30:10.978Z,16.97
2019-06-26T04:31:10.973Z,17.00
2019-06-26T04:32:10.971Z,17.01
2019-06-26T04:33:10.929Z,17.03
2019-06-26T04:34:21.355Z,17.01
2019-06-26T04:35:10.902Z,17.01
2019-06-26T04:36:10.896Z,17.00
2019-06-26T04:37:10.880Z,16.97
2019-06-26T04:38:10.911Z,16.94
2019-06-26T04:39:10.854Z,16.89
2019-06-26T04:40:10.846Z,16.89
2019-06-26T04:41:10.829Z,16.88
2019-06-26T04:42:10.827Z,16.91
2019-06-26T04:43:10.816Z,16.88
2019-06-26T04:44:10.824Z,16.89
2019-06-26T04:45:10.815Z,16.93
2019-06-26T04:46:10.795Z,16.88
2019-06-26T04:47:10.775Z,16.85
2019-06-26T04:48:10.777Z,16.86
2019-06-26T04:49:10.772Z,16.85
2019-06-26T04:50:10.746Z,16.86
2019-06-26T04:51:10.744Z,16.86
2019-06-26T04:52:10.733Z,16.85
2019-06-26T04:53:10.716Z,16.83
2019-06-26T04:54:10.714Z,16.83
2019-06-26T04:55:10.724Z,16.85
2019-06-26T04:56:10.673Z,16.85
2019-06-26T04:57:10.714Z,16.86
2019-06-26T04:58:10.688Z,16.86
2019-06-26T04:59:10.641Z,16.89
2019-06-26T05:00:10.670Z,16.86
2019-06-26T05:01:10.646Z,16.86
2019-06-26T05:02:10.628Z,16.89
2019-06-26T05:03:10.592Z,16.96
2019-06-26T05:04:10.599Z,16.98
2019-06-26T05:05:38.186Z,17.01
2019-06-26T05:06:11.584Z,17.06
2019-06-26T05:07:10.549Z,17.08
2019-06-26T05:08:11.122Z,17.12
2019-06-26T05:09:10.535Z,17.14
2019-06-26T05:10:10.533Z,17.15
2019-06-26T05:11:12.812Z,17.08
2019-06-26T05:12:10.498Z,17.14
2019-06-26T05:13:10.520Z,17.11
2019-06-26T05:14:10.479Z,17.14
2019-06-26T05:15:10.471Z,17.18
2019-06-26T05:16:14.760Z,17.25
2019-06-26T05:17:11.453Z,17.30
2019-06-26T05:18:10.440Z,17.38
2019-06-26T05:19:10.440Z,17.40
2019-06-26T05:20:10.420Z,17.43
2019-06-26T05:21:10.415Z,17.43
2019-06-26T05:22:10.436Z,17.40
2019-06-26T05:23:10.437Z,17.40
2019-06-26T05:24:10.379Z,17.41
2019-06-26T05:25:10.391Z,17.37
2019-06-26T05:26:10.349Z,17.33
2019-06-26T05:27:10.361Z,17.23
2019-06-26T05:28:10.336Z,17.21
2019-06-26T05:29:10.326Z,17.26
2019-06-26T05:30:10.328Z,17.23
2019-06-26T05:31:10.298Z,17.22
2019-06-26T05:32:10.291Z,17.18
2019-06-26T05:33:10.279Z,17.18
2019-06-26T05:34:11.230Z,17.14
2019-06-26T05:35:10.266Z,17.07
2019-06-26T05:36:20.652Z,17.08
2019-06-26T05:37:10.281Z,17.12
2019-06-26T05:38:10.241Z,17.12
2019-06-26T05:39:10.256Z,17.12
2019-06-26T05:40:10.208Z,17.12
2019-06-26T05:41:10.196Z,17.11
2019-06-26T05:42:10.188Z,17.11
2019-06-26T05:43:10.161Z,17.06
2019-06-26T05:44:10.157Z,17.04
2019-06-26T05:45:10.194Z,17.06
2019-06-26T05:46:10.152Z,17.07
2019-06-26T05:47:10.144Z,17.07
2019-06-26T05:48:10.136Z,17.07
2019-06-26T05:49:10.105Z,17.11
2019-06-26T05:50:10.483Z,17.18
2019-06-26T05:51:10.210Z,17.18
2019-06-26T05:52:10.071Z,17.19
2019-06-26T05:53:10.071Z,17.18
2019-06-26T05:54:10.042Z,17.19
2019-06-26T05:55:10.059Z,17.22
2019-06-26T05:56:10.031Z,17.26
2019-06-26T05:57:10.032Z,17.25
2019-06-26T05:58:10.003Z,17.25
2019-06-26T05:59:09.992Z,17.23
2019-06-26T06:00:10.010Z,17.22
2019-06-26T06:01:09.987Z,17.19
2019-06-26T06:02:09.959Z,17.21
2019-06-26T06:03:09.968Z,17.16
2019-06-26T06:04:10.040Z,17.14
2019-06-26T06:05:09.954Z,17.16
2019-06-26T06:06:09.977Z,17.16
2019-06-26T06:07:21.101Z,17.19
2019-06-26T06:08:09.889Z,17.19
2019-06-26T06:09:09.883Z,17.23
2019-06-26T06:10:09.891Z,17.18
2019-06-26T06:11:09.868Z,17.19
2019-06-26T06:12:09.848Z,17.21
2019-06-26T06:13:09.857Z,17.18
2019-06-26T06:14:10.584Z,17.16
2019-06-26T06:15:09.847Z,17.18
2019-06-26T06:16:09.828Z,17.15
2019-06-26T06:17:09.795Z,17.19
2019-06-26T06:18:09.791Z,17.19
2019-06-26T06:19:09.790Z,17.22
2019-06-26T06:20:09.837Z,17.26
2019-06-26T06:21:09.802Z,17.30
2019-06-26T06:22:09.762Z,17.33
2019-06-26T06:23:09.741Z,17.34
2019-06-26T06:24:09.728Z,17.31
2019-06-26T06:25:09.707Z,17.31
2019-06-26T06:26:09.706Z,17.33
2019-06-26T06:27:09.719Z,17.28
2019-06-26T06:28:09.700Z,17.23
2019-06-26T06:29:09.687Z,17.23
2019-06-26T06:30:09.656Z,17.30
2019-06-26T06:31:09.646Z,17.34
2019-06-26T06:32:09.656Z,17.34
2019-06-26T06:33:09.637Z,17.36
2019-06-26T06:34:09.639Z,17.38
2019-06-26T06:35:09.598Z,17.40
2019-06-26T06:36:09.943Z,17.33
2019-06-26T06:37:09.589Z,17.30
2019-06-26T06:38:20.183Z,17.25
2019-06-26T06:39:09.567Z,17.25
2019-06-26T06:40:09.543Z,17.21
2019-06-26T06:41:09.544Z,17.25
2019-06-26T06:42:09.523Z,17.33
2019-06-26T06:43:09.524Z,17.37
2019-06-26T06:44:09.521Z,17.38
2019-06-26T06:45:09.521Z,17.44
2019-06-26T06:46:09.489Z,17.46
2019-06-26T06:47:09.576Z,17.49
2019-06-26T06:48:09.493Z,17.52
2019-06-26T06:49:09.453Z,17.55
2019-06-26T06:50:09.457Z,17.52
2019-06-26T06:51:09.434Z,17.49
2019-06-26T06:52:09.435Z,17.38
2019-06-26T06:53:09.419Z,17.38
2019-06-26T06:54:09.414Z,17.38
2019-06-26T06:55:09.436Z,17.34
2019-06-26T06:56:09.400Z,17.30
2019-06-26T06:57:09.481Z,17.30
2019-06-26T06:58:09.382Z,17.36
2019-06-26T06:59:09.353Z,17.33
2019-06-26T07:00:09.334Z,17.30
2019-06-26T07:01:09.378Z,17.33
2019-06-26T07:02:09.323Z,17.31
2019-06-26T07:03:09.301Z,17.30
2019-06-26T07:04:09.312Z,17.34
2019-06-26T07:05:09.391Z,17.37
2019-06-26T07:06:09.309Z,17.41
2019-06-26T07:07:09.291Z,17.40
2019-06-26T07:08:09.279Z,17.37
2019-06-26T07:09:19.798Z,17.33
2019-06-26T07:10:09.220Z,17.34
2019-06-26T07:11:09.198Z,17.40
2019-06-26T07:12:09.206Z,17.38
2019-06-26T07:13:09.248Z,17.37
2019-06-26T07:14:09.176Z,17.40
2019-06-26T07:15:09.193Z,17.44
2019-06-26T07:16:09.166Z,17.48
2019-06-26T07:17:19.847Z,17.52
2019-06-26T07:18:10.157Z,17.56
2019-06-26T07:19:09.131Z,17.62
2019-06-26T07:20:09.150Z,17.62
2019-06-26T07:21:09.115Z,17.64
2019-06-26T07:22:09.098Z,17.63
2019-06-26T07:23:09.151Z,17.58
2019-06-26T07:24:09.094Z,17.54
2019-06-26T07:25:09.090Z,17.49
2019-06-26T07:26:09.068Z,17.55
2019-06-26T07:27:09.066Z,17.58
2019-06-26T07:28:09.119Z,17.59
2019-06-26T07:29:09.028Z,17.58
2019-06-26T07:30:09.020Z,17.64
2019-06-26T07:31:09.016Z,17.63
2019-06-26T07:32:09.055Z,17.63
2019-06-26T07:33:09.011Z,17.64
2019-06-26T07:34:08.967Z,17.54
2019-06-26T07:35:08.982Z,17.51
2019-06-26T07:36:08.961Z,17.52
2019-06-26T07:37:08.938Z,17.56
2019-06-26T07:38:08.929Z,17.58
2019-06-26T07:39:08.914Z,17.59
2019-06-26T07:40:19.693Z,17.62
2019-06-26T07:41:08.883Z,17.66
2019-06-26T07:42:08.882Z,17.72
2019-06-26T07:43:08.856Z,17.72
2019-06-26T07:44:08.877Z,17.70
2019-06-26T07:45:08.858Z,17.72
2019-06-26T07:46:08.855Z,17.71
2019-06-26T07:47:22.524Z,17.74
2019-06-26T07:48:09.836Z,17.74
2019-06-26T07:49:08.825Z,17.72
2019-06-26T07:50:08.792Z,17.63
2019-06-26T07:51:08.812Z,17.64
2019-06-26T07:52:08.771Z,17.68
2019-06-26T07:53:08.754Z,17.71
2019-06-26T07:54:08.748Z,17.70
2019-06-26T07:55:11.864Z,17.70
2019-06-26T07:56:08.740Z,17.66
2019-06-26T07:57:08.745Z,17.68
2019-06-26T07:58:08.719Z,17.72
2019-06-26T07:59:08.693Z,17.70
2019-06-26T08:00:08.719Z,17.62
2019-06-26T08:01:08.686Z,17.62
2019-06-26T08:02:08.691Z,17.62
2019-06-26T08:03:08.724Z,17.66
2019-06-26T08:04:08.673Z,17.71
2019-06-26T08:05:08.656Z,17.71
2019-06-26T08:06:08.623Z,17.75
2019-06-26T08:07:08.613Z,17.77
2019-06-26T08:08:08.641Z,17.74
2019-06-26T08:09:08.594Z,17.75
2019-06-26T08:10:08.583Z,17.79
2019-06-26T08:11:19.227Z,17.86
2019-06-26T08:12:08.560Z,17.84
2019-06-26T08:13:08.539Z,17.86
2019-06-26T08:14:08.540Z,17.86
2019-06-26T08:15:08.517Z,17.92
2019-06-26T08:16:08.521Z,17.95
2019-06-26T08:17:08.527Z,17.90
2019-06-26T08:18:08.502Z,17.92
2019-06-26T08:19:08.521Z,17.93
2019-06-26T08:20:08.457Z,17.96
2019-06-26T08:21:12.549Z,18.03
2019-06-26T08:22:08.450Z,18.07
2019-06-26T08:23:08.460Z,18.03
2019-06-26T08:24:08.417Z,17.93
2019-06-26T08:25:08.471Z,17.86
2019-06-26T08:26:08.439Z,17.89
2019-06-26T08:27:08.399Z,17.92
2019-06-26T08:28:08.402Z,17.97
2019-06-26T08:29:08.400Z,18.02
2019-06-26T08:30:08.443Z,18.05
2019-06-26T08:31:08.408Z,18.05
2019-06-26T08:32:08.339Z,18.03
2019-06-26T08:33:08.339Z,17.97
2019-06-26T08:34:08.319Z,17.93
2019-06-26T08:35:08.311Z,17.89
2019-06-26T08:36:08.311Z,17.95
2019-06-26T08:37:08.323Z,17.96
2019-06-26T08:38:12.430Z,18.00
2019-06-26T08:39:09.276Z,18.03
2019-06-26T08:40:08.262Z,18.11
2019-06-26T08:41:08.247Z,18.14
2019-06-26T08:42:20.453Z,18.12
2019-06-26T08:43:08.221Z,18.15
2019-06-26T08:44:08.214Z,18.18
2019-06-26T08:45:08.225Z,18.20
2019-06-26T08:46:08.196Z,18.15
2019-06-26T08:47:08.233Z,18.15
2019-06-26T08:48:19.279Z,18.20
2019-06-26T08:49:24.233Z,18.25
2019-06-26T08:50:09.245Z,18.25
2019-06-26T08:51:08.130Z,18.25
2019-06-26T08:52:08.122Z,18.15
2019-06-26T08:53:08.161Z,18.03
2019-06-26T08:54:08.105Z,18.07
2019-06-26T08:55:08.102Z,18.11
2019-06-26T08:56:08.087Z,18.15
2019-06-26T08:57:08.073Z,18.21
2019-06-26T08:58:08.052Z,18.21
2019-06-26T08:59:08.104Z,18.18
2019-06-26T09:00:08.050Z,18.20
2019-06-26T09:01:08.018Z,18.20
2019-06-26T09:02:08.018Z,18.20
2019-06-26T09:03:07.998Z,18.18
2019-06-26T09:04:08.004Z,18.10
2019-06-26T09:05:08.043Z,18.11
2019-06-26T09:06:07.981Z,18.18
2019-06-26T09:07:07.952Z,18.21
2019-06-26T09:08:08.036Z,18.26
2019-06-26T09:09:08.031Z,18.36
2019-06-26T09:10:07.942Z,18.39
2019-06-26T09:11:07.927Z,18.47
2019-06-26T09:12:07.925Z,18.48
2019-06-26T09:14:20.717Z,18.45
2019-06-26T09:15:20.718Z,18.39
2019-06-26T09:16:20.716Z,18.44
2019-06-26T09:17:20.704Z,18.44
2019-06-26T09:18:34.438Z,18.48
2019-06-26T09:19:21.665Z,18.42
2019-06-26T09:20:20.654Z,18.45
2019-06-26T09:21:20.695Z,18.44
2019-06-26T09:22:20.634Z,18.45
2019-06-26T09:23:20.646Z,18.44
2019-06-26T09:24:20.617Z,18.37
2019-06-26T09:25:22.432Z,18.39
2019-06-26T09:26:20.610Z,18.41
2019-06-26T09:27:20.595Z,18.42
2019-06-26T09:28:20.587Z,18.37
2019-06-26T09:29:23.769Z,18.36
2019-06-26T09:30:20.560Z,18.36
2019-06-26T09:31:20.553Z,18.39
2019-06-26T09:32:20.555Z,18.41
2019-06-26T09:33:20.530Z,18.48
2019-06-26T09:34:20.528Z,18.52
2019-06-26T09:35:20.506Z,18.60
2019-06-26T09:36:20.494Z,18.67
2019-06-26T09:37:20.483Z,18.73
2019-06-26T09:38:20.495Z,18.67
2019-06-26T09:39:20.483Z,18.63
2019-06-26T09:40:20.454Z,18.62
2019-06-26T09:41:20.443Z,18.70
2019-06-26T09:42:20.437Z,18.80
2019-06-26T09:43:20.469Z,18.80
2019-06-26T09:44:27.396Z,18.80
2019-06-26T09:45:20.406Z,18.85
2019-06-26T09:46:20.397Z,18.85
2019-06-26T09:47:20.376Z,18.88
2019-06-26T09:48:20.355Z,18.90
2019-06-26T09:49:20.402Z,18.95
2019-06-26T09:50:20.344Z,19.00
2019-06-26T09:51:20.336Z,18.94
2019-06-26T09:52:20.387Z,18.99
2019-06-26T09:53:20.427Z,19.07
2019-06-26T09:54:20.292Z,19.08
2019-06-26T09:55:20.309Z,19.13
2019-06-26T09:56:20.281Z,19.21
2019-06-26T09:57:20.290Z,19.32
2019-06-26T09:58:20.338Z,19.37
2019-06-26T09:59:20.263Z,19.32
2019-06-26T10:00:20.285Z,19.32
2019-06-26T10:01:20.235Z,19.29
2019-06-26T10:02:20.225Z,19.25
2019-06-26T10:03:20.223Z,19.21
2019-06-26T10:04:20.190Z,19.26
2019-06-26T10:05:20.477Z,19.28
2019-06-26T10:06:20.196Z,19.19
2019-06-26T10:07:20.165Z,19.06
2019-06-26T10:08:20.161Z,19.08
2019-06-26T10:09:20.156Z,19.00
2019-06-26T10:10:20.153Z,19.04
2019-06-26T10:11:20.133Z,19.16
2019-06-26T10:12:20.113Z,19.22
2019-06-26T10:13:20.102Z,19.23
2019-06-26T10:14:20.089Z,19.26
2019-06-26T10:15:30.682Z,19.28
2019-06-26T10:16:20.076Z,19.32
2019-06-26T10:17:20.068Z,19.37
2019-06-26T10:18:20.058Z,19.39
2019-06-26T10:19:20.050Z,19.39
2019-06-26T10:20:20.157Z,19.41
2019-06-26T10:21:23.496Z,19.29
2019-06-26T10:22:20.059Z,19.28
2019-06-26T10:23:19.987Z,19.18
2019-06-26T10:24:19.986Z,19.08
2019-06-26T10:25:19.986Z,19.00
2019-06-26T10:26:19.985Z,19.04
2019-06-26T10:27:19.948Z,19.06
2019-06-26T10:28:20.003Z,18.94
2019-06-26T10:29:19.930Z,18.85
2019-06-26T10:30:19.926Z,18.87
2019-06-26T10:31:19.940Z,18.88
2019-06-26T10:32:19.908Z,18.76
2019-06-26T10:33:19.913Z,18.75
2019-06-26T10:34:19.884Z,18.82
2019-06-26T10:35:19.875Z,18.87
2019-06-26T10:36:19.862Z,18.90
2019-06-26T10:37:19.869Z,18.92
2019-06-26T10:38:19.847Z,18.98
2019-06-26T10:39:19.838Z,19.00
2019-06-26T10:40:19.821Z,18.92
2019-06-26T10:41:19.808Z,18.90
2019-06-26T10:42:19.801Z,18.82
2019-06-26T10:43:19.788Z,18.70
2019-06-26T10:44:19.838Z,18.67
2019-06-26T10:45:19.769Z,18.69
2019-06-26T10:46:30.162Z,18.70
2019-06-26T10:47:19.746Z,18.70
2019-06-26T10:48:19.801Z,18.67
2019-06-26T10:49:27.087Z,18.67
2019-06-26T10:50:20.746Z,18.67
2019-06-26T10:51:19.696Z,18.73
2019-06-26T10:52:19.700Z,18.81
2019-06-26T10:53:19.711Z,18.87
2019-06-26T10:54:19.678Z,18.90
2019-06-26T10:55:19.663Z,18.94
2019-06-26T10:56:19.675Z,19.00
2019-06-26T10:57:19.646Z,19.07
2019-06-26T10:58:19.629Z,19.21
2019-06-26T10:59:19.635Z,19.25
2019-06-26T11:00:19.621Z,19.31
2019-06-26T11:01:19.684Z,19.36
2019-06-26T11:02:19.591Z,19.46
2019-06-26T11:03:19.583Z,19.48
2019-06-26T11:04:19.582Z,19.56
2019-06-26T11:05:19.554Z,19.63
2019-06-26T11:06:19.564Z,19.69
2019-06-26T11:07:19.589Z,19.68
2019-06-26T11:08:19.533Z,19.66
2019-06-26T11:09:19.525Z,19.80
2019-06-26T11:10:19.510Z,19.81
2019-06-26T11:11:19.503Z,19.81
2019-06-26T11:12:19.493Z,19.91
2019-06-26T11:13:19.527Z,19.98
2019-06-26T11:14:19.470Z,19.95
2019-06-26T11:15:19.457Z,20.06
2019-06-26T11:16:19.441Z,20.17
2019-06-26T11:17:29.707Z,20.29
2019-06-26T11:18:19.416Z,20.33
2019-06-26T11:19:19.435Z,20.17
2019-06-26T11:20:19.395Z,20.21
2019-06-26T11:21:19.388Z,20.61
2019-06-26T11:22:19.366Z,20.80
2019-06-26T11:23:19.460Z,20.59
2019-06-26T11:24:19.377Z,20.51
2019-06-26T11:25:19.349Z,20.31
2019-06-26T11:26:19.348Z,20.32
2019-06-26T11:27:19.350Z,20.24
2019-06-26T11:28:19.330Z,20.17
2019-06-26T11:29:19.308Z,20.16
2019-06-26T11:30:19.312Z,20.10
2019-06-26T11:31:19.303Z,19.98
2019-06-26T11:32:19.296Z,19.95
2019-06-26T11:33:19.277Z,19.98
2019-06-26T11:34:19.270Z,20.02
2019-06-26T11:35:19.260Z,20.11
2019-06-26T11:36:19.235Z,20.13
2019-06-26T11:37:22.772Z,20.11
2019-06-26T11:38:19.208Z,19.96
2019-06-26T11:39:19.204Z,19.88
2019-06-26T11:40:19.226Z,19.78
2019-06-26T11:41:19.177Z,19.63
2019-06-26T11:42:19.167Z,19.56
2019-06-26T11:43:19.156Z,19.58
2019-06-26T11:44:19.179Z,19.68
2019-06-26T11:45:19.177Z,19.71
2019-06-26T11:46:19.134Z,19.77
2019-06-26T11:47:19.131Z,19.78
2019-06-26T11:48:29.477Z,19.68
2019-06-26T11:49:19.083Z,19.62
2019-06-26T11:50:19.180Z,19.59
2019-06-26T11:51:19.097Z,19.47
2019-06-26T11:52:19.107Z,19.37
2019-06-26T11:53:19.095Z,19.31
2019-06-26T11:54:19.035Z,19.29
2019-06-26T11:55:19.027Z,19.28
2019-06-26T11:56:19.037Z,19.28
2019-06-26T11:57:19.005Z,19.29
2019-06-26T11:58:18.996Z,19.40
2019-06-26T11:59:18.973Z,19.41
2019-06-26T12:00:18.987Z,19.43
2019-06-26T12:01:19.015Z,19.47
2019-06-26T12:02:18.946Z,19.51
2019-06-26T12:03:18.949Z,19.54
2019-06-26T12:04:18.935Z,19.61
2019-06-26T12:05:18.933Z,19.74
2019-06-26T12:06:19.462Z,19.83
2019-06-26T12:07:18.927Z,19.94
2019-06-26T12:08:18.912Z,20.03
2019-06-26T12:09:18.909Z,20.05
2019-06-26T12:10:18.873Z,20.06
2019-06-26T12:11:18.871Z,20.11
2019-06-26T12:12:19.068Z,20.13
2019-06-26T12:13:18.882Z,20.14
2019-06-26T12:14:18.824Z,20.20
2019-06-26T12:15:18.815Z,20.23
2019-06-26T12:16:18.804Z,20.29
2019-06-26T12:17:18.816Z,20.35
2019-06-26T12:18:18.796Z,20.32
2019-06-26T12:19:29.280Z,20.33
2019-06-26T12:20:19.927Z,20.33
2019-06-26T12:21:18.936Z,20.33
2019-06-26T12:22:18.760Z,20.38
2019-06-26T12:23:18.780Z,20.38
2019-06-26T12:24:18.721Z,20.38
2019-06-26T12:25:18.709Z,20.39
2019-06-26T12:26:18.723Z,20.77
2019-06-26T12:27:18.690Z,21.12
2019-06-26T12:28:18.691Z,21.46
2019-06-26T12:29:18.688Z,21.53
2019-06-26T12:30:18.691Z,21.61
2019-06-26T12:31:18.664Z,21.71
2019-06-26T12:32:18.668Z,21.71
2019-06-26T12:33:18.639Z,21.69
2019-06-26T12:34:18.627Z,21.50
2019-06-26T12:35:18.612Z,21.59
2019-06-26T12:36:18.590Z,21.59
2019-06-26T12:37:18.641Z,21.62
2019-06-26T12:38:18.585Z,21.69
2019-06-26T12:39:18.631Z,21.68
2019-06-26T12:40:18.549Z,21.86
2019-06-26T12:41:18.538Z,21.91
2019-06-26T12:42:18.531Z,21.67
2019-06-26T12:43:18.556Z,21.47
2019-06-26T12:44:18.522Z,21.29
2019-06-26T12:45:18.534Z,21.13
2019-06-26T12:46:18.488Z,21.03
2019-06-26T12:47:18.478Z,20.97
2019-06-26T12:48:18.462Z,20.91
2019-06-26T12:49:18.463Z,20.82
2019-06-26T12:50:35.716Z,20.64
2019-06-26T12:51:19.430Z,20.55
2019-06-26T12:52:18.435Z,20.50
2019-06-26T12:53:18.429Z,20.42